sensor_id;sensor_type;location;lat;lon;timestamp;pressure;altitude;pressure_sealevel;temperature;humidity
65173;BME280;51758;52.218;5.172;2022-11-28T00:01:57;100806.72;;;6.28;100.00
65173;BME280;51758;52.218;5.172;2022-11-28T00:04:25;100809.31;;;6.28;100.00
65173;BME280;51758;52.218;5.172;2022-11-28T00:06:53;100806.59;;;6.37;100.00
65173;BME280;51758;52.218;5.172;2022-11-28T00:09:20;100811.59;;;6.31;100.00
65173;BME280;51758;52.218;5.172;2022-11-28T00:11:48;100798.94;;;6.28;100.00
65173;BME280;51758;52.218;5.172;2022-11-28T00:14:18;100806.25;;;6.32;100.00
65173;BME280;51758;52.218;5.172;2022-11-28T00:16:46;100804.97;;;6.36;100.00
65173;BME280;51758;52.218;5.172;2022-11-28T00:19:14;100794.56;;;6.28;100.00
65173;BME280;51758;52.218;5.172;2022-11-28T00:21:42;100798.50;;;6.32;100.00
65173;BME280;51758;52.218;5.172;2022-11-28T00:24:09;100799.78;;;6.36;100.00
65173;BME280;51758;52.218;5.172;2022-11-28T00:26:39;100802.22;;;6.38;100.00
65173;BME280;51758;52.218;5.172;2022-11-28T00:29:08;100789.56;;;6.35;100.00
65173;BME280;51758;52.218;5.172;2022-11-28T00:31:39;100787.34;;;6.40;100.00
65173;BME280;51758;52.218;5.172;2022-11-28T00:34:11;100780.22;;;6.42;100.00
65173;BME280;51758;52.218;5.172;2022-11-28T00:36:40;100775.19;;;6.40;100.00
65173;BME280;51758;52.218;5.172;2022-11-28T00:39:08;100782.19;;;6.48;100.00
65173;BME280;51758;52.218;5.172;2022-11-28T00:41:36;100786.41;;;6.49;100.00
65173;BME280;51758;52.218;5.172;2022-11-28T00:44:04;100785.56;;;6.40;100.00
65173;BME280;51758;52.218;5.172;2022-11-28T00:46:32;100783.94;;;6.39;100.00
65173;BME280;51758;52.218;5.172;2022-11-28T00:49:01;100785.75;;;6.47;100.00
65173;BME280;51758;52.218;5.172;2022-11-28T00:51:30;100787.25;;;6.50;100.00
65173;BME280;51758;52.218;5.172;2022-11-28T00:54:01;100786.09;;;6.44;100.00
65173;BME280;51758;52.218;5.172;2022-11-28T00:56:31;100779.16;;;6.53;100.00
65173;BME280;51758;52.218;5.172;2022-11-28T00:59:00;100760.34;;;6.51;100.00
65173;BME280;51758;52.218;5.172;2022-11-28T01:01:29;100755.66;;;6.54;100.00
65173;BME280;51758;52.218;5.172;2022-11-28T01:04:00;100753.53;;;6.50;100.00
65173;BME280;51758;52.218;5.172;2022-11-28T01:06:31;100744.09;;;6.48;100.00
65173;BME280;51758;52.218;5.172;2022-11-28T01:09:02;100753.53;;;6.50;100.00
65173;BME280;51758;52.218;5.172;2022-11-28T01:11:30;100749.81;;;6.52;100.00
65173;BME280;51758;52.218;5.172;2022-11-28T01:13:59;100752.09;;;6.55;100.00
65173;BME280;51758;52.218;5.172;2022-11-28T01:16:27;100746.63;;;6.58;100.00
65173;BME280;51758;52.218;5.172;2022-11-28T01:18:56;100739.00;;;6.65;100.00
65173;BME280;51758;52.218;5.172;2022-11-28T01:21:24;100742.44;;;6.65;100.00
65173;BME280;51758;52.218;5.172;2022-11-28T01:23:53;100739.16;;;6.63;100.00
65173;BME280;51758;52.218;5.172;2022-11-28T01:26:23;100739.97;;;6.64;100.00
65173;BME280;51758;52.218;5.172;2022-11-28T01:28:52;100730.13;;;6.67;100.00
65173;BME280;51758;52.218;5.172;2022-11-28T01:31:22;100733.03;;;6.72;100.00
65173;BME280;51758;52.218;5.172;2022-11-28T01:33:50;100734.66;;;6.73;100.00
65173;BME280;51758;52.218;5.172;2022-11-28T01:36:19;100733.69;;;6.74;100.00
65173;BME280;51758;52.218;5.172;2022-11-28T01:38:47;100736.34;;;6.82;100.00
65173;BME280;51758;52.218;5.172;2022-11-28T01:41:20;100727.25;;;6.78;100.00
65173;BME280;51758;52.218;5.172;2022-11-28T01:44:00;100739.25;;;6.79;100.00
65173;BME280;51758;52.218;5.172;2022-11-28T01:46:28;100749.31;;;6.82;100.00
65173;BME280;51758;52.218;5.172;2022-11-28T01:49:01;100741.72;;;6.89;100.00
65173;BME280;51758;52.218;5.172;2022-11-28T01:51:30;100738.66;;;6.94;100.00
65173;BME280;51758;52.218;5.172;2022-11-28T01:53:59;100736.38;;;6.91;100.00
65173;BME280;51758;52.218;5.172;2022-11-28T01:56:31;100741.25;;;6.94;100.00
65173;BME280;51758;52.218;5.172;2022-11-28T01:59:06;100742.22;;;6.93;100.00
65173;BME280;51758;52.218;5.172;2022-11-28T02:01:37;100734.13;;;6.96;100.00
65173;BME280;51758;52.218;5.172;2022-11-28T02:04:05;100733.78;;;6.99;100.00
65173;BME280;51758;52.218;5.172;2022-11-28T02:06:34;100734.97;;;7.04;100.00
65173;BME280;51758;52.218;5.172;2022-11-28T02:09:02;100736.09;;;7.02;100.00
65173;BME280;51758;52.218;5.172;2022-11-28T02:11:52;100732.53;;;7.03;100.00
65173;BME280;51758;52.218;5.172;2022-11-28T02:14:35;100736.09;;;7.10;100.00
65173;BME280;51758;52.218;5.172;2022-11-28T02:17:15;100727.34;;;7.11;100.00
65173;BME280;51758;52.218;5.172;2022-11-28T02:20:15;100723.78;;;7.12;100.00
65173;BME280;51758;52.218;5.172;2022-11-28T02:22:52;100724.28;;;7.15;100.00
65173;BME280;51758;52.218;5.172;2022-11-28T02:25:59;100711.16;;;7.17;100.00
65173;BME280;51758;52.218;5.172;2022-11-28T02:28:38;100709.38;;;7.17;100.00
65173;BME280;51758;52.218;5.172;2022-11-28T02:31:27;100709.88;;;7.21;100.00
65173;BME280;51758;52.218;5.172;2022-11-28T02:34:02;100713.91;;;7.24;100.00
65173;BME280;51758;52.218;5.172;2022-11-28T02:36:33;100712.94;;;7.25;100.00
65173;BME280;51758;52.218;5.172;2022-11-28T02:39:07;100714.56;;;7.26;100.00
65173;BME280;51758;52.218;5.172;2022-11-28T02:41:43;100713.13;;;7.31;100.00
65173;BME280;51758;52.218;5.172;2022-11-28T02:44:14;100715.88;;;7.30;100.00
65173;BME280;51758;52.218;5.172;2022-11-28T02:46:48;100714.59;;;7.34;100.00
65173;BME280;51758;52.218;5.172;2022-11-28T02:49:21;100706.31;;;7.30;100.00
65173;BME280;51758;52.218;5.172;2022-11-28T02:51:52;100703.22;;;7.35;100.00
65173;BME280;51758;52.218;5.172;2022-11-28T02:54:23;100710.53;;;7.39;100.00
65173;BME280;51758;52.218;5.172;2022-11-28T02:56:53;100717.03;;;7.43;100.00
65173;BME280;51758;52.218;5.172;2022-11-28T02:59:24;100716.38;;;7.41;100.00
65173;BME280;51758;52.218;5.172;2022-11-28T03:01:55;100713.78;;;7.41;100.00
65173;BME280;51758;52.218;5.172;2022-11-28T03:04:31;100707.63;;;7.34;100.00
65173;BME280;51758;52.218;5.172;2022-11-28T03:07:09;100712.34;;;7.47;100.00
65173;BME280;51758;52.218;5.172;2022-11-28T03:10:02;100701.47;;;7.43;100.00
65173;BME280;51758;52.218;5.172;2022-11-28T03:12:39;100707.94;;;7.47;100.00
65173;BME280;51758;52.218;5.172;2022-11-28T03:15:16;100704.38;;;7.48;100.00
65173;BME280;51758;52.218;5.172;2022-11-28T03:17:51;100701.31;;;7.45;100.00
65173;BME280;51758;52.218;5.172;2022-11-28T03:20:29;100703.91;;;7.45;100.00
65173;BME280;51758;52.218;5.172;2022-11-28T03:23:03;100704.38;;;7.48;100.00
65173;BME280;51758;52.218;5.172;2022-11-28T03:25:43;100702.59;;;7.49;100.00
65173;BME280;51758;52.218;5.172;2022-11-28T03:28:18;100691.22;;;7.42;100.00
65173;BME280;51758;52.218;5.172;2022-11-28T03:30:51;100694.94;;;7.47;100.00
65173;BME280;51758;52.218;5.172;2022-11-28T03:33:22;100705.19;;;7.49;100.00
65173;BME280;51758;52.218;5.172;2022-11-28T03:35:56;100696.56;;;7.48;100.00
65173;BME280;51758;52.218;5.172;2022-11-28T03:38:27;100696.59;;;7.57;100.00
65173;BME280;51758;52.218;5.172;2022-11-28T03:41:00;100701.47;;;7.51;100.00
65173;BME280;51758;52.218;5.172;2022-11-28T03:43:33;100662.16;;;7.30;100.00
65173;BME280;51758;52.218;5.172;2022-11-28T03:46:06;100694.63;;;7.50;100.00
65173;BME280;51758;52.218;5.172;2022-11-28T03:48:38;100704.06;;;7.51;100.00
65173;BME280;51758;52.218;5.172;2022-11-28T03:51:13;100697.88;;;7.52;100.00
65173;BME280;51758;52.218;5.172;2022-11-28T03:53:49;100698.03;;;7.51;100.00
65173;BME280;51758;52.218;5.172;2022-11-28T03:56:22;100702.13;;;7.53;100.00
65173;BME280;51758;52.218;5.172;2022-11-28T03:58:55;100705.22;;;7.57;100.00
65173;BME280;51758;52.218;5.172;2022-11-28T04:01:28;100709.41;;;7.50;100.00
65173;BME280;51758;52.218;5.172;2022-11-28T04:04:06;100696.41;;;7.42;100.00
65173;BME280;51758;52.218;5.172;2022-11-28T04:06:48;100704.56;;;7.47;100.00
65173;BME280;51758;52.218;5.172;2022-11-28T04:09:19;100712.81;;;7.50;100.00
65173;BME280;51758;52.218;5.172;2022-11-28T04:11:53;100720.59;;;7.50;100.00
65173;BME280;51758;52.218;5.172;2022-11-28T04:14:25;100712.16;;;7.48;100.00
65173;BME280;51758;52.218;5.172;2022-11-28T04:17:03;100711.84;;;7.43;100.00
65173;BME280;51758;52.218;5.172;2022-11-28T04:19:36;100715.72;;;7.47;100.00
65173;BME280;51758;52.218;5.172;2022-11-28T04:22:09;100714.09;;;7.38;100.00
65173;BME280;51758;52.218;5.172;2022-11-28T04:24:42;100700.81;;;7.33;100.00
65173;BME280;51758;52.218;5.172;2022-11-28T04:27:15;100718.97;;;7.41;100.00
65173;BME280;51758;52.218;5.172;2022-11-28T04:29:47;100717.84;;;7.52;100.00
65173;BME280;51758;52.218;5.172;2022-11-28T04:32:17;100714.59;;;7.42;100.00
65173;BME280;51758;52.218;5.172;2022-11-28T04:34:49;100712.50;;;7.45;100.00
65173;BME280;51758;52.218;5.172;2022-11-28T04:37:20;100716.53;;;7.40;100.00
65173;BME280;51758;52.218;5.172;2022-11-28T04:39:50;100716.03;;;7.36;100.00
65173;BME280;51758;52.218;5.172;2022-11-28T04:42:20;100699.50;;;7.29;100.00
65173;BME280;51758;52.218;5.172;2022-11-28T04:44:52;100714.25;;;7.37;100.00
65173;BME280;51758;52.218;5.172;2022-11-28T04:47:22;100712.47;;;7.29;100.00
65173;BME280;51758;52.218;5.172;2022-11-28T04:49:50;100721.88;;;7.38;100.00
65173;BME280;51758;52.218;5.172;2022-11-28T04:52:23;100675.94;;;7.14;100.00
65173;BME280;51758;52.218;5.172;2022-11-28T04:54:59;100712.63;;;7.36;100.00
65173;BME280;51758;52.218;5.172;2022-11-28T04:57:32;100713.13;;;7.31;100.00
65173;BME280;51758;52.218;5.172;2022-11-28T05:00:04;100715.22;;;7.36;100.00
65173;BME280;51758;52.218;5.172;2022-11-28T05:02:35;100728.06;;;7.37;100.00
65173;BME280;51758;52.218;5.172;2022-11-28T05:05:05;100716.19;;;7.35;100.00
65173;BME280;51758;52.218;5.172;2022-11-28T05:07:35;100722.53;;;7.32;100.00
65173;BME280;51758;52.218;5.172;2022-11-28T05:10:03;100728.41;;;7.34;100.00
65173;BME280;51758;52.218;5.172;2022-11-28T05:12:31;100725.63;;;7.28;100.00
65173;BME280;51758;52.218;5.172;2022-11-28T05:14:58;100730.97;;;7.26;100.00
65173;BME280;51758;52.218;5.172;2022-11-28T05:17:26;100732.28;;;7.30;100.00
65173;BME280;51758;52.218;5.172;2022-11-28T05:19:54;100737.63;;;7.29;100.00
65173;BME280;51758;52.218;5.172;2022-11-28T05:22:21;100735.03;;;7.29;100.00
65173;BME280;51758;52.218;5.172;2022-11-28T05:24:50;100746.22;;;7.29;100.00
65173;BME280;51758;52.218;5.172;2022-11-28T05:27:18;100736.66;;;7.30;100.00
65173;BME280;51758;52.218;5.172;2022-11-28T05:29:45;100754.69;;;7.31;100.00
65173;BME280;51758;52.218;5.172;2022-11-28T05:32:17;100755.00;;;7.28;100.00
65173;BME280;51758;52.218;5.172;2022-11-28T05:34:45;100763.59;;;7.29;100.00
65173;BME280;51758;52.218;5.172;2022-11-28T05:37:13;100751.22;;;7.23;100.00
65173;BME280;51758;52.218;5.172;2022-11-28T05:39:40;100753.66;;;7.24;100.00
65173;BME280;51758;52.218;5.172;2022-11-28T05:42:10;100758.06;;;7.24;100.00
65173;BME280;51758;52.218;5.172;2022-11-28T05:44:37;100750.75;;;7.27;100.00
65173;BME280;51758;52.218;5.172;2022-11-28T05:47:05;100754.03;;;7.29;100.00
65173;BME280;51758;52.218;5.172;2022-11-28T05:49:33;100755.00;;;7.28;100.00
65173;BME280;51758;52.218;5.172;2022-11-28T05:52:00;100752.09;;;7.31;100.00
65173;BME280;51758;52.218;5.172;2022-11-28T05:54:28;100757.59;;;7.28;100.00
65173;BME280;51758;52.218;5.172;2022-11-28T05:56:57;100763.44;;;7.38;100.00
65173;BME280;51758;52.218;5.172;2022-11-28T05:59:26;100759.06;;;7.39;100.00
65173;BME280;51758;52.218;5.172;2022-11-28T06:01:53;100761.16;;;7.35;100.00
65173;BME280;51758;52.218;5.172;2022-11-28T06:04:21;100764.09;;;7.32;100.00
65173;BME280;51758;52.218;5.172;2022-11-28T06:06:49;100763.94;;;7.42;100.00
65173;BME280;51758;52.218;5.172;2022-11-28T06:09:17;100766.34;;;7.35;100.00
65173;BME280;51758;52.218;5.172;2022-11-28T06:11:51;100764.91;;;7.33;100.00
65173;BME280;51758;52.218;5.172;2022-11-28T06:14:18;100766.34;;;7.35;100.00
65173;BME280;51758;52.218;5.172;2022-11-28T06:16:47;100764.41;;;7.37;100.00
65173;BME280;51758;52.218;5.172;2022-11-28T06:19:15;100769.63;;;7.37;100.00
65173;BME280;51758;52.218;5.172;2022-11-28T06:21:43;100765.38;;;7.36;100.00
65173;BME280;51758;52.218;5.172;2022-11-28T06:24:11;100770.13;;;7.41;100.00
65173;BME280;51758;52.218;5.172;2022-11-28T06:26:38;100754.53;;;7.41;100.00
65173;BME280;51758;52.218;5.172;2022-11-28T06:29:06;100760.06;;;7.46;100.00
65173;BME280;51758;52.218;5.172;2022-11-28T06:31:34;100766.72;;;7.40;100.00
65173;BME280;51758;52.218;5.172;2022-11-28T06:34:03;100762.94;;;7.35;100.00
65173;BME280;51758;52.218;5.172;2022-11-28T06:36:30;100778.06;;;7.39;100.00
65173;BME280;51758;52.218;5.172;2022-11-28T06:38:58;100783.94;;;7.49;100.00
65173;BME280;51758;52.218;5.172;2022-11-28T06:41:25;100770.94;;;7.49;100.00
65173;BME280;51758;52.218;5.172;2022-11-28T06:43:54;100769.16;;;7.50;100.00
65173;BME280;51758;52.218;5.172;2022-11-28T06:46:22;100772.25;;;7.45;100.00
65173;BME280;51758;52.218;5.172;2022-11-28T06:48:50;100778.56;;;7.43;100.00
65173;BME280;51758;52.218;5.172;2022-11-28T06:51:20;100779.22;;;7.45;100.00
65173;BME280;51758;52.218;5.172;2022-11-28T06:53:48;100774.69;;;7.47;100.00
65173;BME280;51758;52.218;5.172;2022-11-28T06:56:18;100780.03;;;7.45;100.00
65173;BME280;51758;52.218;5.172;2022-11-28T06:58:53;100784.09;;;7.48;100.00
65173;BME280;51758;52.218;5.172;2022-11-28T07:01:22;100779.06;;;7.46;100.00
65173;BME280;51758;52.218;5.172;2022-11-28T07:03:50;100783.09;;;7.41;100.00
65173;BME280;51758;52.218;5.172;2022-11-28T07:06:22;100795.78;;;7.44;100.00
65173;BME280;51758;52.218;5.172;2022-11-28T07:08:50;100794.16;;;7.51;100.00
65173;BME280;51758;52.218;5.172;2022-11-28T07:11:21;100794.97;;;7.51;100.00
65173;BME280;51758;52.218;5.172;2022-11-28T07:13:50;100782.03;;;7.60;100.00
65173;BME280;51758;52.218;5.172;2022-11-28T07:16:19;100789.47;;;7.54;100.00
65173;BME280;51758;52.218;5.172;2022-11-28T07:18:47;100796.94;;;7.58;100.00
65173;BME280;51758;52.218;5.172;2022-11-28T07:21:16;100780.66;;;7.47;100.00
65173;BME280;51758;52.218;5.172;2022-11-28T07:23:45;100797.78;;;7.58;100.00
65173;BME280;51758;52.218;5.172;2022-11-28T07:26:16;100809.94;;;7.58;100.00
65173;BME280;51758;52.218;5.172;2022-11-28T07:28:44;100804.41;;;7.52;100.00
65173;BME280;51758;52.218;5.172;2022-11-28T07:31:14;100814.31;;;7.57;100.00
65173;BME280;51758;52.218;5.172;2022-11-28T07:33:44;100819.19;;;7.60;100.00
65173;BME280;51758;52.218;5.172;2022-11-28T07:36:14;100820.50;;;7.56;100.00
65173;BME280;51758;52.218;5.172;2022-11-28T07:38:46;100826.00;;;7.61;100.00
65173;BME280;51758;52.218;5.172;2022-11-28T07:41:14;100814.63;;;7.54;100.00
65173;BME280;51758;52.218;5.172;2022-11-28T07:43:43;100821.31;;;7.65;100.00
65173;BME280;51758;52.218;5.172;2022-11-28T07:46:14;100823.91;;;7.65;100.00
65173;BME280;51758;52.218;5.172;2022-11-28T07:48:42;100820.19;;;7.67;100.00
65173;BME280;51758;52.218;5.172;2022-11-28T07:51:11;100818.88;;;7.55;100.00
65173;BME280;51758;52.218;5.172;2022-11-28T07:53:39;100834.78;;;7.60;100.00
65173;BME280;51758;52.218;5.172;2022-11-28T07:56:10;100826.66;;;7.63;100.00
65173;BME280;51758;52.218;5.172;2022-11-28T07:58:41;100828.81;;;7.76;100.00
65173;BME280;51758;52.218;5.172;2022-11-28T08:01:11;100832.06;;;7.70;100.00
65173;BME280;51758;52.218;5.172;2022-11-28T08:03:39;100829.16;;;7.81;100.00
65173;BME280;51758;52.218;5.172;2022-11-28T08:06:07;100821.81;;;7.76;100.00
65173;BME280;51758;52.218;5.172;2022-11-28T08:08:35;100812.44;;;7.83;100.00
65173;BME280;51758;52.218;5.172;2022-11-28T08:11:06;100822.31;;;7.72;100.00
65173;BME280;51758;52.218;5.172;2022-11-28T08:13:36;100831.91;;;7.71;100.00
65173;BME280;51758;52.218;5.172;2022-11-28T08:16:05;100831.75;;;7.81;100.00
65173;BME280;51758;52.218;5.172;2022-11-28T08:18:34;100824.09;;;7.87;100.00
65173;BME280;51758;52.218;5.172;2022-11-28T08:21:03;100830.75;;;7.74;100.00
65173;BME280;51758;52.218;5.172;2022-11-28T08:23:32;100829.78;;;7.75;100.00
65173;BME280;51758;52.218;5.172;2022-11-28T08:26:00;100824.09;;;7.71;100.00
65173;BME280;51758;52.218;5.172;2022-11-28T08:28:28;100821.66;;;7.86;100.00
65173;BME280;51758;52.218;5.172;2022-11-28T08:30:58;100825.91;;;7.95;100.00
65173;BME280;51758;52.218;5.172;2022-11-28T08:33:29;100827.06;;;7.93;100.00
65173;BME280;51758;52.218;5.172;2022-11-28T08:35:56;100842.81;;;7.91;100.00
65173;BME280;51758;52.218;5.172;2022-11-28T08:38:24;100843.63;;;7.83;100.00
65173;BME280;51758;52.218;5.172;2022-11-28T08:40:59;100857.25;;;7.85;100.00
65173;BME280;51758;52.218;5.172;2022-11-28T08:43:27;100852.72;;;7.96;100.00
65173;BME280;51758;52.218;5.172;2022-11-28T08:45:55;100837.13;;;7.96;100.00
65173;BME280;51758;52.218;5.172;2022-11-28T08:48:24;100831.59;;;7.90;100.00
65173;BME280;51758;52.218;5.172;2022-11-28T08:50:52;100839.56;;;7.97;100.00
65173;BME280;51758;52.218;5.172;2022-11-28T08:53:20;100828.50;;;7.87;100.00
65173;BME280;51758;52.218;5.172;2022-11-28T08:55:48;100852.88;;;7.94;100.00
65173;BME280;51758;52.218;5.172;2022-11-28T08:58:16;100844.59;;;7.99;100.00
65173;BME280;51758;52.218;5.172;2022-11-28T09:00:43;100842.50;;;8.10;100.00
65173;BME280;51758;52.218;5.172;2022-11-28T09:03:12;100843.78;;;7.98;100.00
65173;BME280;51758;52.218;5.172;2022-11-28T09:05:43;100848.84;;;8.16;100.00
65173;BME280;51758;52.218;5.172;2022-11-28T09:08:11;100846.09;;;8.09;100.00
65173;BME280;51758;52.218;5.172;2022-11-28T09:10:39;100849.31;;;8.03;100.00
65173;BME280;51758;52.218;5.172;2022-11-28T09:13:07;100844.78;;;8.13;100.00
65173;BME280;51758;52.218;5.172;2022-11-28T09:15:38;100845.59;;;7.98;100.00
65173;BME280;51758;52.218;5.172;2022-11-28T09:18:05;100843.50;;;8.09;100.00
65173;BME280;51758;52.218;5.172;2022-11-28T09:20:33;100841.84;;;8.08;100.00
65173;BME280;51758;52.218;5.172;2022-11-28T09:23:03;100841.19;;;7.98;100.00
65173;BME280;51758;52.218;5.172;2022-11-28T09:25:33;100841.84;;;8.00;100.00
65173;BME280;51758;52.218;5.172;2022-11-28T09:28:01;100845.41;;;7.99;100.00
65173;BME280;51758;52.218;5.172;2022-11-28T09:30:28;100846.56;;;8.05;100.00
65173;BME280;51758;52.218;5.172;2022-11-28T09:32:56;100836.16;;;7.97;100.00
65173;BME280;51758;52.218;5.172;2022-11-28T09:35:23;100846.09;;;8.09;100.00
65173;BME280;51758;52.218;5.172;2022-11-28T09:37:51;100841.53;;;8.19;100.00
65173;BME280;51758;52.218;5.172;2022-11-28T09:40:25;100842.50;;;8.18;100.00
65173;BME280;51758;52.218;5.172;2022-11-28T09:42:56;100845.47;;;8.32;100.00
65173;BME280;51758;52.218;5.172;2022-11-28T09:45:24;100857.78;;;8.30;100.00
65173;BME280;51758;52.218;5.172;2022-11-28T09:47:53;100853.44;;;8.46;100.00
65173;BME280;51758;52.218;5.172;2022-11-28T09:50:24;100855.50;;;8.26;100.00
65173;BME280;51758;52.218;5.172;2022-11-28T09:52:57;100855.03;;;8.31;100.00
65173;BME280;51758;52.218;5.172;2022-11-28T09:55:32;100855.50;;;8.26;100.00
65173;BME280;51758;52.218;5.172;2022-11-28T09:58:04;100862.38;;;8.36;100.00
65173;BME280;51758;52.218;5.172;2022-11-28T10:00:37;100868.03;;;8.31;100.00
65173;BME280;51758;52.218;5.172;2022-11-28T10:03:27;100860.53;;;8.28;100.00
65173;BME280;51758;52.218;5.172;2022-11-28T10:06:05;100864.34;;;8.34;100.00
65173;BME280;51758;52.218;5.172;2022-11-28T10:08:41;100863.16;;;8.28;100.00
65173;BME280;51758;52.218;5.172;2022-11-28T10:11:26;100872.47;;;8.47;100.00
65173;BME280;51758;52.218;5.172;2022-11-28T10:14:04;100876.84;;;8.46;100.00
65173;BME280;51758;52.218;5.172;2022-11-28T10:16:48;100882.88;;;8.47;100.00
65173;BME280;51758;52.218;5.172;2022-11-28T10:19:24;100874.91;;;8.48;100.00
65173;BME280;51758;52.218;5.172;2022-11-28T10:22:18;100884.81;;;8.53;100.00
65173;BME280;51758;52.218;5.172;2022-11-28T10:24:50;100879.13;;;8.57;100.00
65173;BME280;51758;52.218;5.172;2022-11-28T10:27:24;100884.16;;;8.59;100.00
65173;BME280;51758;52.218;5.172;2022-11-28T10:29:58;100875.06;;;8.55;100.00
65173;BME280;51758;52.218;5.172;2022-11-28T10:32:31;100877.50;;;8.56;100.00
65173;BME280;51758;52.218;5.172;2022-11-28T10:35:01;100881.56;;;8.59;100.00
65173;BME280;51758;52.218;5.172;2022-11-28T10:37:34;100875.84;;;8.63;100.00
65173;BME280;51758;52.218;5.172;2022-11-28T10:40:15;100875.69;;;8.73;100.00
65173;BME280;51758;52.218;5.172;2022-11-28T10:42:50;100860.69;;;8.75;100.00
65173;BME280;51758;52.218;5.172;2022-11-28T10:45:24;100862.66;;;8.81;100.00
65173;BME280;51758;52.218;5.172;2022-11-28T10:48:07;100858.44;;;8.72;100.00
65173;BME280;51758;52.218;5.172;2022-11-28T10:51:05;100853.03;;;8.98;100.00
65173;BME280;51758;52.218;5.172;2022-11-28T10:53:40;100859.03;;;8.98;100.00
65173;BME280;51758;52.218;5.172;2022-11-28T10:56:19;100854.31;;;8.94;100.00
65173;BME280;51758;52.218;5.172;2022-11-28T10:58:56;100865.19;;;9.06;100.00
65173;BME280;51758;52.218;5.172;2022-11-28T11:01:27;100863.59;;;8.96;100.00
65173;BME280;51758;52.218;5.172;2022-11-28T11:03:56;100862.59;;;9.06;100.00
65173;BME280;51758;52.218;5.172;2022-11-28T11:06:24;100863.09;;;9.01;100.00
65173;BME280;51758;52.218;5.172;2022-11-28T11:09:07;100857.41;;;8.97;100.00
65173;BME280;51758;52.218;5.172;2022-11-28T11:11:41;100864.88;;;9.01;100.00
65173;BME280;51758;52.218;5.172;2022-11-28T11:14:31;100868.00;;;8.96;100.00
65173;BME280;51758;52.218;5.172;2022-11-28T11:16:59;100878.09;;;8.99;100.00
65173;BME280;51758;52.218;5.172;2022-11-28T11:19:29;100876.09;;;9.01;100.00
65173;BME280;51758;52.218;5.172;2022-11-28T11:21:59;100868.44;;;8.99;100.00
65173;BME280;51758;52.218;5.172;2022-11-28T11:24:29;100876.25;;;8.99;100.00
65173;BME280;51758;52.218;5.172;2022-11-28T11:27:03;100880.50;;;9.01;100.00
65173;BME280;51758;52.218;5.172;2022-11-28T11:29:34;100882.78;;;9.12;100.00
65173;BME280;51758;52.218;5.172;2022-11-28T11:32:04;100883.56;;;9.20;100.00
65173;BME280;51758;52.218;5.172;2022-11-28T11:34:36;100877.56;;;9.12;100.00
65173;BME280;51758;52.218;5.172;2022-11-28T11:37:19;100883.75;;;9.11;100.00
65173;BME280;51758;52.218;5.172;2022-11-28T11:39:49;100877.81;;;9.25;100.00
65173;BME280;51758;52.218;5.172;2022-11-28T11:42:20;100873.63;;;9.16;100.00
65173;BME280;51758;52.218;5.172;2022-11-28T11:44:50;100875.13;;;9.10;100.00
65173;BME280;51758;52.218;5.172;2022-11-28T11:47:18;100877.22;;;9.15;100.00
65173;BME280;51758;52.218;5.172;2022-11-28T11:49:47;100871.38;;;9.05;100.00
65173;BME280;51758;52.218;5.172;2022-11-28T11:52:20;100866.34;;;9.11;100.00
65173;BME280;51758;52.218;5.172;2022-11-28T11:54:55;100872.16;;;9.13;100.00
65173;BME280;51758;52.218;5.172;2022-11-28T11:57:25;100876.72;;;9.19;100.00
65173;BME280;51758;52.218;5.172;2022-11-28T12:00:03;100870.41;;;9.06;100.00
65173;BME280;51758;52.218;5.172;2022-11-28T12:02:36;100871.22;;;9.06;100.00
65173;BME280;51758;52.218;5.172;2022-11-28T12:05:10;100876.22;;;9.16;100.00
65173;BME280;51758;52.218;5.172;2022-11-28T12:07:49;100880.13;;;9.20;100.00
65173;BME280;51758;52.218;5.172;2022-11-28T12:10:21;100871.31;;;9.29;100.00
65173;BME280;51758;52.218;5.172;2022-11-28T12:12:51;100869.66;;;9.36;100.00
65173;BME280;51758;52.218;5.172;2022-11-28T12:15:26;100879.09;;;9.37;100.00
65173;BME280;51758;52.218;5.172;2022-11-28T12:18:08;100883.66;;;9.35;100.00
65173;BME280;51758;52.218;5.172;2022-11-28T12:20:53;100873.38;;;9.42;100.00
65173;BME280;51758;52.218;5.172;2022-11-28T12:23:39;100868.63;;;9.45;100.00
65173;BME280;51758;52.218;5.172;2022-11-28T12:26:17;100862.28;;;9.48;100.00
65173;BME280;51758;52.218;5.172;2022-11-28T12:28:59;100880.00;;;9.52;100.00
65173;BME280;51758;52.218;5.172;2022-11-28T12:31:42;100876.84;;;9.26;100.00
65173;BME280;51758;52.218;5.172;2022-11-28T12:34:22;100875.84;;;9.35;100.00
65173;BME280;51758;52.218;5.172;2022-11-28T12:37:03;100875.59;;;9.53;100.00
65173;BME280;51758;52.218;5.172;2022-11-28T12:39:35;100879.00;;;9.61;100.00
65173;BME280;51758;52.218;5.172;2022-11-28T12:42:27;100877.06;;;9.55;100.00
65173;BME280;51758;52.218;5.172;2022-11-28T12:45:16;100871.19;;;9.53;100.00
65173;BME280;51758;52.218;5.172;2022-11-28T12:47:53;100879.06;;;9.45;100.00
65173;BME280;51758;52.218;5.172;2022-11-28T12:50:31;100878.38;;;9.51;100.00
65173;BME280;51758;52.218;5.172;2022-11-28T12:53:18;100882.59;;;9.60;100.00
65173;BME280;51758;52.218;5.172;2022-11-28T12:55:54;100880.81;;;9.53;100.00
65173;BME280;51758;52.218;5.172;2022-11-28T12:58:26;100884.16;;;9.69;100.00
65173;BME280;51758;52.218;5.172;2022-11-28T13:01:03;100890.03;;;9.63;100.00
65173;BME280;51758;52.218;5.172;2022-11-28T13:03:39;100887.44;;;9.63;100.00
65173;BME280;51758;52.218;5.172;2022-11-28T13:06:19;100899.97;;;9.68;100.00
65173;BME280;51758;52.218;5.172;2022-11-28T13:09:07;100902.56;;;9.68;100.00
65173;BME280;51758;52.218;5.172;2022-11-28T13:11:48;100905.78;;;9.78;100.00
65173;BME280;51758;52.218;5.172;2022-11-28T13:14:27;100894.00;;;9.51;100.00
65173;BME280;51758;52.218;5.172;2022-11-28T13:17:04;100899.53;;;9.56;100.00